createdAt,value
2019-02-12T00:00:26.085Z,9.13
2019-02-12T00:02:55.274Z,10.48
2019-02-12T00:05:24.415Z,7.15
2019-02-12T00:07:53.538Z,8.73
2019-02-12T00:10:22.719Z,6.65
2019-02-12T00:12:51.846Z,6.47
2019-02-12T00:15:21.294Z,7.80
2019-02-12T00:17:50.413Z,14.47
2019-02-12T00:20:19.594Z,15.25
2019-02-12T00:22:48.722Z,15.80
2019-02-12T00:25:17.840Z,6.78
2019-02-12T00:27:46.965Z,7.42
2019-02-12T00:30:16.069Z,6.47
2019-02-12T00:32:45.191Z,6.85
2019-02-12T00:35:15.609Z,6.83
2019-02-12T00:37:46.018Z,7.80
2019-02-12T00:40:15.234Z,6.08
2019-02-12T00:42:44.352Z,6.03
2019-02-12T00:45:13.473Z,6.85
2019-02-12T00:47:42.596Z,6.97
2019-02-12T00:50:11.706Z,6.50
2019-02-12T00:52:40.824Z,6.20
2019-02-12T00:55:09.937Z,6.03
2019-02-12T00:57:39.059Z,6.05
2019-02-12T01:00:15.382Z,6.53
2019-02-12T01:02:44.506Z,5.95
2019-02-12T01:05:13.675Z,6.08
2019-02-12T01:07:42.795Z,6.60
2019-02-12T01:10:12.109Z,6.22
2019-02-12T01:12:41.300Z,5.92
2019-02-12T01:15:13.723Z,6.33
2019-02-12T01:17:42.873Z,6.75
2019-02-12T01:20:13.731Z,6.42
2019-02-12T01:22:42.884Z,8.40
2019-02-12T01:25:12.092Z,6.72
2019-02-12T01:27:41.204Z,5.95
2019-02-12T01:30:12.856Z,6.37
2019-02-12T01:32:41.978Z,7.60
2019-02-12T01:35:11.118Z,6.40
2019-02-12T01:37:40.230Z,6.58
2019-02-12T01:40:11.287Z,6.15
2019-02-12T01:42:40.485Z,7.10
2019-02-12T01:45:11.250Z,6.03
2019-02-12T01:47:40.364Z,7.37
2019-02-12T01:50:11.345Z,6.87
2019-02-12T01:52:40.458Z,6.95
2019-02-12T01:55:09.576Z,6.92
2019-02-12T01:57:38.688Z,6.67
2019-02-12T02:00:10.704Z,7.08
2019-02-12T02:02:39.823Z,6.80
2019-02-12T02:05:09.845Z,6.80
2019-02-12T02:07:38.963Z,7.45
2019-02-12T02:10:10.926Z,7.20
2019-02-12T02:12:40.107Z,7.90
2019-02-12T02:15:10.860Z,6.50
2019-02-12T02:17:39.980Z,6.90
2019-02-12T02:20:11.870Z,7.53
2019-02-12T02:22:40.988Z,6.95
2019-02-12T02:25:11.638Z,8.03
2019-02-12T02:27:40.780Z,7.92
2019-02-12T02:30:11.840Z,6.97
2019-02-12T02:32:41.020Z,8.40
2019-02-12T02:35:10.139Z,7.15
2019-02-12T02:37:39.280Z,7.85
2019-02-12T02:40:09.641Z,7.12
2019-02-12T02:42:38.772Z,8.00
2019-02-12T02:45:10.324Z,8.98
2019-02-12T02:47:39.432Z,8.65
2019-02-12T02:50:09.892Z,7.80
2019-02-12T02:52:39.091Z,8.40
2019-02-12T02:55:09.059Z,7.22
2019-02-12T02:57:38.176Z,8.35
2019-02-12T03:00:09.446Z,8.33
2019-02-12T03:02:38.634Z,8.20
2019-02-12T03:05:10.101Z,7.53
2019-02-12T03:07:39.211Z,7.80
2019-02-12T03:10:10.344Z,8.98
2019-02-12T03:12:39.716Z,7.40
2019-02-12T03:15:10.604Z,7.58
2019-02-12T03:17:39.722Z,7.53
2019-02-12T03:20:11.089Z,7.67
2019-02-12T03:22:40.272Z,7.83
2019-02-12T03:25:10.266Z,6.85
2019-02-12T03:27:39.389Z,6.28
2019-02-12T03:30:11.402Z,7.67
2019-02-12T03:32:40.548Z,7.80
2019-02-12T03:35:11.002Z,7.37
2019-02-12T03:37:40.096Z,7.85
2019-02-12T03:40:10.858Z,7.40
2019-02-12T03:42:39.980Z,8.10
2019-02-12T03:45:11.338Z,8.13
2019-02-12T03:47:40.458Z,7.30
2019-02-12T03:50:12.656Z,7.15
2019-02-12T03:52:42.105Z,7.60
2019-02-12T03:55:12.681Z,7.67
2019-02-12T03:57:41.775Z,8.23
2019-02-12T04:00:13.491Z,7.95
2019-02-12T04:03:02.289Z,8.08
2019-02-12T04:05:31.417Z,8.33
2019-02-12T04:08:00.601Z,7.67
2019-02-12T04:10:30.789Z,8.78
2019-02-12T04:12:59.910Z,8.58
2019-02-12T04:15:29.083Z,8.35
2019-02-12T04:17:58.197Z,9.48
2019-02-12T04:20:27.377Z,8.70
2019-02-12T04:22:56.499Z,9.18
2019-02-12T04:25:25.618Z,9.75
2019-02-12T04:27:55.539Z,8.85
2019-02-12T04:30:24.845Z,8.10
2019-02-12T04:32:53.954Z,8.53
2019-02-12T04:35:23.064Z,9.63
2019-02-12T04:37:52.189Z,10.13
2019-02-12T04:40:21.302Z,9.43
2019-02-12T04:42:50.439Z,10.45
2019-02-12T04:45:19.578Z,10.05
2019-02-12T04:47:48.694Z,10.78
2019-02-12T04:50:17.859Z,11.43
2019-02-12T04:52:47.258Z,11.33
2019-02-12T04:55:16.379Z,11.10
2019-02-12T04:57:45.500Z,12.90
2019-02-12T05:00:18.783Z,12.73
2019-02-12T05:02:47.898Z,10.82
2019-02-12T05:05:17.347Z,10.13
2019-02-12T05:07:46.478Z,10.53
2019-02-12T05:10:21.493Z,12.10
2019-02-12T05:12:50.625Z,14.38
2019-02-12T05:15:19.744Z,13.35
2019-02-12T05:17:48.869Z,14.28
2019-02-12T05:20:17.997Z,13.58
2019-02-12T05:22:47.135Z,12.03
2019-02-12T05:25:16.410Z,14.85
2019-02-12T05:27:45.539Z,12.88
2019-02-12T05:30:14.937Z,13.22
2019-02-12T05:32:44.048Z,13.90
2019-02-12T05:35:13.169Z,12.90
2019-02-12T05:37:42.301Z,11.97
2019-02-12T05:40:11.686Z,12.82
2019-02-12T05:42:40.824Z,11.55
2019-02-12T05:45:12.060Z,13.28
2019-02-12T05:47:41.189Z,12.05
2019-02-12T05:50:12.329Z,12.75
2019-02-12T05:52:41.520Z,12.82
2019-02-12T05:55:10.635Z,12.20
2019-02-12T05:57:39.798Z,12.68
2019-02-12T06:00:16.749Z,12.35
2019-02-12T06:02:46.849Z,11.63
2019-02-12T06:05:27.511Z,11.48
2019-02-12T06:07:56.639Z,11.63
2019-02-12T06:10:25.749Z,11.33
2019-02-12T06:12:55.943Z,10.43
2019-02-12T06:15:25.083Z,12.13
2019-02-12T06:17:54.204Z,11.63
2019-02-12T06:20:24.394Z,12.40
2019-02-12T06:23:03.089Z,12.25
2019-02-12T06:25:24.739Z,11.45
2019-02-12T06:27:53.923Z,12.13
2019-02-12T06:30:22.984Z,12.23
2019-02-12T06:32:52.110Z,11.63
2019-02-12T06:35:21.218Z,12.47
2019-02-12T06:37:50.674Z,14.00
2019-02-12T06:40:20.089Z,14.73
2019-02-12T06:42:49.205Z,17.02
2019-02-12T06:45:18.330Z,19.55
2019-02-12T06:47:47.458Z,21.02
2019-02-12T06:50:16.588Z,20.05
2019-02-12T06:52:45.788Z,21.25
2019-02-12T06:55:14.912Z,22.13
2019-02-12T06:57:44.385Z,22.50
2019-02-12T07:00:14.354Z,16.30
2019-02-12T07:03:03.331Z,18.32
2019-02-12T07:05:32.444Z,18.32
2019-02-12T07:08:10.355Z,16.95
2019-02-12T07:10:39.478Z,15.15
2019-02-12T07:13:21.092Z,13.62
2019-02-12T07:15:50.709Z,14.98
2019-02-12T07:18:56.418Z,15.72
2019-02-12T07:21:28.803Z,19.67
2019-02-12T07:24:03.879Z,21.57
2019-02-12T07:26:38.971Z,16.55
2019-02-12T07:29:32.460Z,18.35
2019-02-12T07:32:04.878Z,15.60
2019-02-12T07:34:49.492Z,15.55
2019-02-12T07:37:38.339Z,14.58
2019-02-12T07:40:22.525Z,14.55
2019-02-12T07:42:54.912Z,15.15
2019-02-12T07:45:32.787Z,26.37
2019-02-12T07:48:34.087Z,37.53
2019-02-12T07:51:15.350Z,15.72
2019-02-12T07:54:11.549Z,15.35
2019-02-12T07:56:56.537Z,13.35
2019-02-12T07:59:31.520Z,13.70
2019-02-12T08:02:12.754Z,12.93
2019-02-12T08:04:50.731Z,12.15
2019-02-12T08:07:57.084Z,12.43
2019-02-12T08:10:47.920Z,12.85
2019-02-12T08:13:39.004Z,13.28
2019-02-12T08:16:26.317Z,12.40
2019-02-12T08:19:01.266Z,10.90
2019-02-12T08:21:33.641Z,10.72
2019-02-12T08:24:17.772Z,11.70
2019-02-12T08:27:11.724Z,10.63
2019-02-12T08:30:19.391Z,10.38
2019-02-12T08:32:51.772Z,10.72
2019-02-12T08:35:31.358Z,10.98
2019-02-12T08:38:26.377Z,12.40
2019-02-12T08:41:14.984Z,12.88
2019-02-12T08:44:05.501Z,11.78
2019-02-12T08:46:43.868Z,12.70
2019-02-12T08:49:37.141Z,13.78
2019-02-12T08:52:26.198Z,11.70
2019-02-12T08:55:24.270Z,11.83
2019-02-12T08:57:59.414Z,11.55
2019-02-12T09:00:52.454Z,12.40
2019-02-12T09:03:56.074Z,13.32
2019-02-12T09:06:34.743Z,12.98
2019-02-12T09:09:18.810Z,12.37
2019-02-12T09:14:40.532Z,11.80
2019-02-12T09:17:32.027Z,12.37
2019-02-12T09:20:21.714Z,11.70
2019-02-12T09:23:23.896Z,13.48
2019-02-12T09:26:07.990Z,12.58
2019-02-12T09:31:40.344Z,28.87
2019-02-12T09:34:21.598Z,17.15
2019-02-12T09:37:09.084Z,20.97
2019-02-12T09:39:41.474Z,14.83
2019-02-12T09:42:22.967Z,16.40
2019-02-12T09:44:55.642Z,14.05
2019-02-12T09:47:39.868Z,15.55
2019-02-12T09:50:20.900Z,15.55
2019-02-12T09:53:01.987Z,15.63
2019-02-12T09:55:43.415Z,15.95
2019-02-12T09:58:18.853Z,15.75
2019-02-12T10:00:53.925Z,15.58
2019-02-12T10:03:41.288Z,17.62
2019-02-12T10:06:21.583Z,16.90
2019-02-12T10:09:19.061Z,17.37
2019-02-12T10:11:57.371Z,15.18
2019-02-12T10:14:46.605Z,16.60
2019-02-12T10:17:27.825Z,17.57
2019-02-12T10:20:00.332Z,17.85
2019-02-12T10:23:07.619Z,17.45
2019-02-12T10:25:37.099Z,17.75
2019-02-12T10:28:17.917Z,19.87
2019-02-12T10:30:53.530Z,18.95
2019-02-12T10:33:22.665Z,18.40
2019-02-12T10:35:52.136Z,18.07
2019-02-12T10:38:21.284Z,18.55
2019-02-12T10:40:50.448Z,19.00
2019-02-12T10:43:19.918Z,19.85
2019-02-12T10:45:49.068Z,20.32
2019-02-12T10:48:18.229Z,21.30
2019-02-12T10:50:47.348Z,20.80
2019-02-12T10:53:17.566Z,21.60
2019-02-12T10:55:47.794Z,20.43
2019-02-12T10:58:16.944Z,22.17
2019-02-12T11:00:46.077Z,20.65
2019-02-12T11:03:15.224Z,22.07
2019-02-12T11:05:44.658Z,20.62
2019-02-12T11:08:14.063Z,22.32
2019-02-12T11:10:43.197Z,21.23
2019-02-12T11:13:13.402Z,20.23
2019-02-12T11:15:42.614Z,20.12
2019-02-12T11:18:12.091Z,19.62
2019-02-12T11:20:41.232Z,20.08
2019-02-12T11:23:11.018Z,18.87
2019-02-12T11:25:40.213Z,17.77
2019-02-12T11:28:09.354Z,17.40
2019-02-12T11:30:38.489Z,16.70
2019-02-12T11:33:07.616Z,18.12
2019-02-12T11:35:37.001Z,18.57
2019-02-12T11:38:06.175Z,16.97
2019-02-12T11:40:35.534Z,16.77
2019-02-12T11:43:04.924Z,17.20
2019-02-12T11:45:34.300Z,16.55
2019-02-12T11:48:03.434Z,15.03
2019-02-12T11:50:32.832Z,15.85
2019-02-12T11:53:02.029Z,14.00
2019-02-12T11:55:32.844Z,16.73
2019-02-12T11:58:02.237Z,16.42
2019-02-12T12:00:35.661Z,15.95
2019-02-12T12:03:04.876Z,16.37
2019-02-12T12:05:34.284Z,16.37
2019-02-12T12:08:03.488Z,14.55
2019-02-12T12:10:32.590Z,14.63
2019-02-12T12:13:01.765Z,15.45
2019-02-12T12:15:30.880Z,17.05
2019-02-12T12:18:00.009Z,13.95
2019-02-12T12:20:29.147Z,14.00
2019-02-12T12:22:58.369Z,13.90
2019-02-12T12:25:27.524Z,13.22
2019-02-12T12:27:56.688Z,13.65
2019-02-12T12:30:26.068Z,12.28
2019-02-12T12:32:56.472Z,12.05
2019-02-12T12:35:25.726Z,12.75
2019-02-12T12:37:54.872Z,11.45
2019-02-12T12:40:24.006Z,11.35
2019-02-12T12:42:53.173Z,11.48
2019-02-12T12:45:22.314Z,11.35
2019-02-12T12:47:51.581Z,12.47
2019-02-12T12:50:20.732Z,11.33
2019-02-12T12:52:50.337Z,11.70
2019-02-12T12:55:19.470Z,10.85
2019-02-12T12:57:48.626Z,10.35
2019-02-12T13:00:17.838Z,10.85
2019-02-12T13:02:47.243Z,10.55
2019-02-12T13:05:16.369Z,10.50
2019-02-12T13:07:45.778Z,10.90
2019-02-12T13:10:18.772Z,11.12
2019-02-12T13:12:47.932Z,10.08
2019-02-12T13:15:17.320Z,9.75
2019-02-12T13:17:46.469Z,10.93
2019-02-12T13:20:19.557Z,10.98
2019-02-12T13:22:48.720Z,10.80
2019-02-12T13:25:17.853Z,11.00
2019-02-12T13:27:47.015Z,10.78
2019-02-12T13:30:17.644Z,10.80
2019-02-12T13:32:46.772Z,9.95
2019-02-12T13:35:15.917Z,11.18
2019-02-12T13:37:45.052Z,11.08
2019-02-12T13:40:14.269Z,9.78
2019-02-12T13:42:43.414Z,10.45
2019-02-12T13:45:18.761Z,11.55
2019-02-12T13:47:47.889Z,10.53
2019-02-12T13:50:17.290Z,10.68
2019-02-12T13:52:46.441Z,10.43
2019-02-12T13:55:17.640Z,9.75
2019-02-12T13:57:47.238Z,10.85
2019-02-12T14:00:17.591Z,9.00
2019-02-12T14:02:46.701Z,9.13
2019-02-12T14:05:21.105Z,9.55
2019-02-12T14:07:50.203Z,9.35
2019-02-12T14:10:19.413Z,10.40
2019-02-12T14:12:48.553Z,9.43
2019-02-12T14:15:17.956Z,9.08
2019-02-12T14:17:47.079Z,9.68
2019-02-12T14:20:17.186Z,10.95
2019-02-12T14:22:46.330Z,10.70
2019-02-12T14:25:16.070Z,10.90
2019-02-12T14:27:45.204Z,10.65
2019-02-12T14:30:18.490Z,10.20
2019-02-12T14:32:47.702Z,10.60
2019-02-12T14:35:16.863Z,10.40
2019-02-12T14:37:46.299Z,11.43
2019-02-12T14:40:16.152Z,10.30
2019-02-12T14:42:45.280Z,11.18
2019-02-12T14:45:18.942Z,12.03
2019-02-12T14:47:48.117Z,12.75
2019-02-12T14:50:18.671Z,11.68
2019-02-12T14:52:47.830Z,11.68
2019-02-12T14:55:18.286Z,11.90
2019-02-12T14:57:47.439Z,13.53
2019-02-12T15:00:17.834Z,13.13
2019-02-12T15:02:47.243Z,12.82
2019-02-12T15:05:16.380Z,13.22
2019-02-12T15:07:45.761Z,13.95
2019-02-12T15:10:15.542Z,13.30
2019-02-12T15:12:44.651Z,13.18
2019-02-12T15:15:13.779Z,13.08
2019-02-12T15:17:42.900Z,13.38
2019-02-12T15:20:12.817Z,14.83
2019-02-12T15:22:42.104Z,14.70
2019-02-12T15:25:12.701Z,14.38
2019-02-12T15:27:41.817Z,14.00
2019-02-12T15:30:15.662Z,12.98
2019-02-12T15:35:13.122Z,14.35
2019-02-12T15:37:42.247Z,13.80
2019-02-12T15:40:21.330Z,13.15
2019-02-12T15:42:50.521Z,14.05
2019-02-12T15:45:23.302Z,13.90
2019-02-12T15:47:52.460Z,15.07
2019-02-12T15:50:21.827Z,15.85
2019-02-12T15:52:50.946Z,13.68
2019-02-12T15:55:20.070Z,14.28
2019-02-12T15:57:49.194Z,13.75
2019-02-12T16:00:20.584Z,13.68
2019-02-12T16:02:49.859Z,13.55
2019-02-12T16:05:19.946Z,14.00
2019-02-12T16:07:49.073Z,13.03
2019-02-12T16:10:21.253Z,13.85
2019-02-12T16:12:51.537Z,14.98
2019-02-12T16:15:23.945Z,20.23
2019-02-12T16:17:52.012Z,17.52
2019-02-12T16:20:21.371Z,15.30
2019-02-12T16:22:50.499Z,14.78
2019-02-12T16:25:19.615Z,19.37
2019-02-12T16:27:49.707Z,17.50
2019-02-12T16:30:20.289Z,20.02
2019-02-12T16:32:49.652Z,22.52
2019-02-12T16:35:18.875Z,26.77
2019-02-12T16:37:48.006Z,15.48
2019-02-12T16:40:18.771Z,18.60
2019-02-12T16:42:47.971Z,15.80
2019-02-12T16:45:23.122Z,17.50
2019-02-12T16:47:53.225Z,18.60
2019-02-12T16:50:22.342Z,15.45
2019-02-12T16:52:51.463Z,14.95
2019-02-12T16:55:20.590Z,14.70
2019-02-12T16:57:49.716Z,14.35
2019-02-12T17:00:18.853Z,14.38
2019-02-12T17:02:48.043Z,14.95
2019-02-12T17:05:17.424Z,15.13
2019-02-12T17:07:46.538Z,14.25
2019-02-12T17:10:15.801Z,15.18
2019-02-12T17:12:44.915Z,15.40
2019-02-12T17:15:14.319Z,14.87
2019-02-12T17:17:44.470Z,15.38
2019-02-12T17:20:21.657Z,14.73
2019-02-12T17:22:50.770Z,16.85
2019-02-12T17:25:19.909Z,15.58
2019-02-12T17:27:49.050Z,17.62
2019-02-12T17:30:18.514Z,17.37
2019-02-12T17:32:47.697Z,21.48
2019-02-12T17:35:16.831Z,21.77
2019-02-12T17:37:46.174Z,19.62
2019-02-12T17:40:16.553Z,19.57
2019-02-12T17:42:45.666Z,17.40
2019-02-12T17:45:16.071Z,18.02
2019-02-12T17:47:45.499Z,17.25
2019-02-12T17:50:15.201Z,23.77
2019-02-12T17:52:44.323Z,17.27
2019-02-12T17:55:13.451Z,16.77
2019-02-12T17:57:42.571Z,17.00
2019-02-12T18:00:23.379Z,17.60
2019-02-12T18:02:52.507Z,16.23
2019-02-12T18:05:21.633Z,17.00
2019-02-12T18:07:50.756Z,18.80
2019-02-12T18:10:19.875Z,19.65
2019-02-12T18:12:49.238Z,18.30
2019-02-12T18:15:18.356Z,17.52
2019-02-12T18:17:47.490Z,19.77
2019-02-12T18:20:17.359Z,21.33
2019-02-12T18:22:46.474Z,22.62
2019-02-12T18:25:15.590Z,21.55
2019-02-12T18:27:44.714Z,19.17
2019-02-12T18:30:15.407Z,19.05
2019-02-12T18:32:44.558Z,21.17
2019-02-12T18:35:13.672Z,19.95
2019-02-12T18:37:42.804Z,20.70
2019-02-12T18:40:17.041Z,18.60
2019-02-12T18:42:46.165Z,19.67
2019-02-12T18:45:23.346Z,23.77
2019-02-12T18:47:52.682Z,20.68
2019-02-12T18:50:22.042Z,19.90
2019-02-12T18:52:51.170Z,20.17
2019-02-12T18:55:20.285Z,20.80
2019-02-12T18:57:49.487Z,18.62
2019-02-12T19:00:22.698Z,18.98
2019-02-12T19:02:51.993Z,17.48
2019-02-12T19:05:21.613Z,18.07
2019-02-12T19:07:50.813Z,18.05
2019-02-12T19:10:20.900Z,18.32
2019-02-12T19:12:50.098Z,18.55
2019-02-12T19:15:20.889Z,16.87
2019-02-12T19:17:56.592Z,20.30
2019-02-12T19:20:25.672Z,17.90
2019-02-12T19:22:54.868Z,18.20
2019-02-12T19:25:24.005Z,18.55
2019-02-12T19:27:53.138Z,19.67
2019-02-12T19:30:22.270Z,18.00
2019-02-12T19:32:51.404Z,19.20
2019-02-12T19:35:20.530Z,20.32
2019-02-12T19:37:49.958Z,19.95
2019-02-12T19:40:19.418Z,19.35
2019-02-12T19:42:48.552Z,18.55
2019-02-12T19:45:18.153Z,18.00
2019-02-12T19:47:47.468Z,23.18
2019-02-12T19:50:16.832Z,24.00
2019-02-12T19:52:46.034Z,20.45
2019-02-12T19:55:15.389Z,25.55
2019-02-12T19:57:44.512Z,19.20
2019-02-12T20:00:16.610Z,21.82
2019-02-12T20:02:45.803Z,23.00
2019-02-12T20:05:14.921Z,22.67
2019-02-12T20:07:44.328Z,27.50
2019-02-12T20:10:14.391Z,23.00
2019-02-12T20:12:43.515Z,33.88
2019-02-12T20:15:15.741Z,28.30
2019-02-12T20:17:44.867Z,25.02
2019-02-12T20:20:14.127Z,21.33
2019-02-12T20:22:43.254Z,21.33
2019-02-12T20:25:12.379Z,21.02
2019-02-12T20:27:41.499Z,20.32
2019-02-12T20:30:19.865Z,20.62
2019-02-12T20:32:48.974Z,21.23
2019-02-12T20:35:20.633Z,33.63
2019-02-12T20:37:50.098Z,37.03
2019-02-12T20:40:19.302Z,27.40
2019-02-12T20:42:48.686Z,23.32
2019-02-12T20:45:18.652Z,20.75
2019-02-12T20:47:48.091Z,20.92
2019-02-12T20:50:19.200Z,25.35
2019-02-12T20:52:48.640Z,24.50
2019-02-12T20:55:17.771Z,25.12
2019-02-12T20:57:46.895Z,20.60
2019-02-12T21:00:20.579Z,19.65
2019-02-12T21:02:50.669Z,18.98
2019-02-12T21:05:19.818Z,18.27
2019-02-12T21:07:48.942Z,19.98
2019-02-12T21:10:19.407Z,20.05
2019-02-12T21:12:48.528Z,18.73
2019-02-12T21:15:22.686Z,18.70
2019-02-12T21:17:51.910Z,19.17
2019-02-12T21:20:21.403Z,19.23
2019-02-12T21:22:50.571Z,19.48
2019-02-12T21:25:19.765Z,18.02
2019-02-12T21:27:48.886Z,19.05
2019-02-12T21:30:22.631Z,18.37
2019-02-12T21:35:20.105Z,19.95
2019-02-12T21:37:49.237Z,18.48
2019-02-12T21:40:25.064Z,19.07
2019-02-12T21:42:54.248Z,18.55
2019-02-12T21:45:40.497Z,18.65
2019-02-12T21:48:09.643Z,18.82
2019-02-12T21:50:39.741Z,19.67
2019-02-12T21:53:08.863Z,19.50
2019-02-12T21:55:38.008Z,19.02
2019-02-12T21:58:07.138Z,17.75
2019-02-12T22:00:36.262Z,19.82
2019-02-12T22:03:05.388Z,19.52
2019-02-12T22:05:34.534Z,18.90
2019-02-12T22:08:04.024Z,18.73
2019-02-12T22:10:33.148Z,19.42
2019-02-12T22:13:02.276Z,19.65
2019-02-12T22:15:31.623Z,19.37
2019-02-12T22:18:00.762Z,18.95
2019-02-12T22:20:29.882Z,19.82
2019-02-12T22:22:59.006Z,19.60
2019-02-12T22:25:28.135Z,19.23
2019-02-12T22:27:57.254Z,18.02
2019-02-12T22:30:26.539Z,18.98
2019-02-12T22:32:55.658Z,20.12
2019-02-12T22:35:24.778Z,19.87
2019-02-12T22:37:54.125Z,19.67
2019-02-12T22:40:23.251Z,18.65
2019-02-12T22:42:52.364Z,20.15
2019-02-12T22:45:23.982Z,19.32
2019-02-12T22:47:53.100Z,19.50
2019-02-12T22:50:22.220Z,20.15
2019-02-12T22:52:51.341Z,21.27
2019-02-12T22:55:20.469Z,21.25
2019-02-12T22:57:49.837Z,20.48
2019-02-12T23:00:49.720Z,19.82
2019-02-12T23:03:19.748Z,20.57
2019-02-12T23:05:48.863Z,21.10
2019-02-12T23:08:17.991Z,20.82
2019-02-12T23:10:47.169Z,19.75
2019-02-12T23:13:16.303Z,19.80
2019-02-12T23:15:45.648Z,19.45
2019-02-12T23:18:14.780Z,19.82
2019-02-12T23:20:43.902Z,20.65
2019-02-12T23:23:13.103Z,20.50
2019-02-12T23:25:42.209Z,20.75
2019-02-12T23:28:11.332Z,20.17
2019-02-12T23:30:40.450Z,21.00
2019-02-12T23:33:09.580Z,19.92
2019-02-12T23:35:38.699Z,22.27
2019-02-12T23:38:07.821Z,21.50
2019-02-12T23:40:36.962Z,22.27
2019-02-12T23:43:06.093Z,20.52
2019-02-12T23:45:35.451Z,20.45
2019-02-12T23:48:04.577Z,20.52
2019-02-12T23:50:33.689Z,20.65
2019-02-12T23:53:02.804Z,21.17
2019-02-12T23:55:31.928Z,21.23
2019-02-12T23:58:06.080Z,21.30
